Lenox, Missouri
Current Conditions -  °F | °C
As of 4:58 PM on Thursday 23 Oct 2014 (Local Time) from KTBN Reporting Station
Overcast Overcast  
Wind Chill: 61°   Ceiling: 8000
Heat Index: 61°   Visibility: 10mi
Dew Point: 51°   Wind: 6mph
Humidity: 70%   Direction: NA
Pressure: 30.12"   Gusts: NA
Location:  37.65°N, 91.76°W
Report Text: KTBN 232158Z AUTO VRB05KT 10SM SCT028 OVC080 16/10 A3012 RMK AO2 SLP203 T01590104
Loading
Personal Weather Stations






























Interactive Weather Map
Tropical Storm Tracking
New forecast layout! Learn more

10-Day Weather Forecast

Advertisements
Track Severe Weather on mobile